Jackson Summit, Pennsylvania
Current Conditions -  °F | °C
As of 5:14 PM on Monday 26 Jan 2015 (Local Time) from KELM Reporting Station
Light Snow Light Snow  
Wind Chill: 10°   Ceiling: 1900
Heat Index: 19°   Visibility: 1.2mi
Dew Point: 15°   Wind: 7mph
Humidity: 85%   Direction: 50°NE
Pressure: 29.86"   Gusts: NA
Location:  41.9565°N, 76.9857°W
Report Text: KELM 262214Z AUTO 05006KT 1 1/4SM -SN BR OVC019 M07/M09 A2986 RMK AO2 P0000 T10721094
Loading
Personal Weather Stations






























Interactive Weather Map New forecast layout! Learn more

10-Day Weather Forecast

Advertisements
Track Severe Weather on mobile